Time;durP1;ratioP1;P1;durP2;ratioP2;P2;SDS_P1;SDS_P2;PMS_P1;PMS_P2;Temp;Humidity;BMP_temperature;BMP_pressure;BME280_temperature;BME280_humidity;BME280_pressure;Samples;Min_cycle;Max_cycle;Signal;HPM_P1;HPM_P2
2022/07/15 00:00:42;;;;;;;5.00;3.47;;;;;;;21.81;56.94;98428.41;4124250;28;20640;-82
2022/07/15 00:02:45;;;;;;;5.97;3.10;;;;;;;21.67;56.25;98438.03;4121446;28;20649;-82
2022/07/15 00:04:48;;;;;;;4.60;3.13;;;;;;;21.63;56.11;98429.53;4108088;28;20667;-81
2022/07/15 00:06:51;;;;;;;5.87;3.07;;;;;;;21.61;56.75;98428.06;4104965;28;20697;-82
2022/07/15 00:08:56;;;;;;;5.03;2.83;;;;;;;21.53;55.99;98426.25;4109920;28;20654;-82
2022/07/15 00:10:58;;;;;;;3.50;2.70;;;;;;;21.49;56.70;98427.53;4123705;28;20645;-82
2022/07/15 00:13:02;;;;;;;4.63;2.83;;;;;;;21.45;56.40;98425.34;4108921;28;20639;-82
2022/07/15 00:15:07;;;;;;;4.67;2.60;;;;;;;21.42;55.84;98421.22;4112199;28;21433;-81
2022/07/15 00:17:10;;;;;;;3.60;2.90;;;;;;;21.43;56.82;98422.03;4109714;28;20688;-82
2022/07/15 00:19:13;;;;;;;4.50;3.10;;;;;;;21.39;56.69;98418.88;4105975;28;20662;-82
2022/07/15 00:21:16;;;;;;;5.70;2.80;;;;;;;21.43;55.39;98422.03;4125803;28;20633;-82
2022/07/15 00:23:19;;;;;;;5.20;2.73;;;;;;;21.45;56.67;98428.84;4106437;28;20628;-82
2022/07/15 00:25:24;;;;;;;4.10;2.73;;;;;;;21.45;55.77;98428.84;4110915;28;20682;-82
2022/07/15 00:27:27;;;;;;;8.10;2.97;;;;;;;21.44;57.87;98424.53;4124866;28;20689;-82
2022/07/15 00:29:30;;;;;;;6.80;3.03;;;;;;;21.39;57.92;98426.84;4125514;28;20643;-82
2022/07/15 00:31:33;;;;;;;4.10;2.70;;;;;;;21.37;57.67;98428.00;4108430;28;20646;-81
2022/07/15 00:33:37;;;;;;;6.57;3.27;;;;;;;21.38;59.02;98427.00;4123243;28;20676;-82
2022/07/15 00:35:40;;;;;;;5.03;3.30;;;;;;;21.34;59.15;98430.97;4108338;28;20750;-82
2022/07/15 00:37:43;;;;;;;5.03;3.07;;;;;;;21.29;60.54;98428.81;4109922;28;21208;-82
2022/07/15 00:39:46;;;;;;;3.77;2.97;;;;;;;21.27;60.22;98431.78;4127130;28;20641;-81
2022/07/15 00:41:51;;;;;;;6.87;3.30;;;;;;;21.23;59.88;98427.78;4110947;28;20635;-81
2022/07/15 00:43:54;;;;;;;5.50;3.17;;;;;;;21.21;60.57;98427.94;4108690;28;20645;-82
2022/07/15 00:45:57;;;;;;;3.43;2.53;;;;;;;21.19;60.42;98418.50;4111926;28;20635;-81
2022/07/15 00:48:00;;;;;;;3.80;2.90;;;;;;;21.16;61.93;98427.63;4123740;28;20636;-81
2022/07/15 00:50:04;;;;;;;5.20;3.20;;;;;;;21.12;61.94;98420.13;4108648;28;20649;-81
2022/07/15 00:52:07;;;;;;;4.00;3.00;;;;;;;21.02;62.37;98420.28;4107869;28;20678;-81
2022/07/15 00:54:11;;;;;;;4.23;2.73;;;;;;;20.93;60.57;98417.78;4122497;28;21284;-81
2022/07/15 00:56:14;;;;;;;4.67;3.13;;;;;;;20.85;61.11;98415.91;4125237;28;20984;-81
2022/07/15 00:58:23;;;;;;;4.50;3.03;;;;;;;20.84;61.15;98426.69;4110009;28;20642;-81
2022/07/15 01:00:27;;;;;;;6.87;3.10;;;;;;;20.84;61.88;98416.06;4106188;28;20698;-81
2022/07/15 01:02:31;;;;;;;5.60;3.50;;;;;;;20.82;60.89;98415.38;4108514;28;20629;-82
2022/07/15 01:04:34;;;;;;;4.63;3.20;;;;;;;20.79;61.50;98425.50;4123133;28;20669;-81
2022/07/15 01:06:38;;;;;;;4.00;3.00;;;;;;;20.76;62.72;98429.28;4123886;28;20765;-81
2022/07/15 01:08:41;;;;;;;4.87;3.30;;;;;;;20.72;62.27;98425.31;4109676;28;20655;-81
2022/07/15 01:10:44;;;;;;;6.83;3.63;;;;;;;20.67;62.29;98432.88;4106364;28;20651;-81
2022/07/15 01:12:48;;;;;;;4.57;3.00;;;;;;;20.62;62.46;98429.03;4106837;28;21317;-82
2022/07/15 01:14:57;;;;;;;4.90;3.00;;;;;;;20.57;61.96;98426.84;4104840;28;21275;-81
2022/07/15 01:17:01;;;;;;;6.50;3.30;;;;;;;20.51;62.79;98427.50;4115620;28;20662;-82
2022/07/15 01:19:05;;;;;;;4.10;2.70;;;;;;;20.46;62.51;98434.22;4110062;28;20669;-82
2022/07/15 01:21:17;;;;;;;4.37;3.47;;;;;;;20.41;63.21;98431.22;4125718;28;20650;-82
2022/07/15 01:23:21;;;;;;;3.33;2.77;;;;;;;20.35;63.15;98427.38;4125469;28;20719;-82
2022/07/15 01:25:39;;;;;;;5.80;3.30;;;;;;;20.28;62.31;98428.16;4105033;28;21266;-82
2022/07/15 01:27:44;;;;;;;5.10;3.20;;;;;;;20.26;62.98;98429.31;4106107;28;20744;-81
2022/07/15 01:29:55;;;;;;;3.83;2.80;;;;;;;20.19;63.79;98430.91;4108427;28;21279;-82
2022/07/15 01:32:00;;;;;;;3.57;2.93;;;;;;;20.11;62.28;98430.88;4123712;28;20687;-81
2022/07/15 01:34:03;;;;;;;3.40;2.77;;;;;;;20.02;62.77;98437.09;4124754;28;21196;-82
2022/07/15 01:36:08;;;;;;;3.90;2.50;;;;;;;19.93;64.45;98430.06;4122356;28;20633;-82
2022/07/15 01:38:14;;;;;;;4.50;3.23;;;;;;;19.81;62.96;98425.97;4112345;28;20682;-82
2022/07/15 01:40:17;;;;;;;5.93;2.50;;;;;;;19.70;63.83;98426.22;4124169;28;21239;-81
2022/07/15 01:42:21;;;;;;;5.30;2.93;;;;;;;19.62;64.65;98434.09;4124582;28;21067;-81
2022/07/15 01:44:24;;;;;;;3.90;2.77;;;;;;;19.58;64.18;98438.03;4127640;28;20798;-82
2022/07/15 01:46:27;;;;;;;5.90;3.17;;;;;;;19.52;64.46;98432.50;4130570;28;20646;-82
2022/07/15 01:51:17;;;;;;;4.10;3.00;;;;;;;19.36;66.40;98429.69;4113409;28;20647;-81
2022/07/15 01:53:22;;;;;;;3.67;2.80;;;;;;;19.30;66.41;98434.75;4109345;28;20740;-81
2022/07/15 01:55:25;;;;;;;4.30;2.70;;;;;;;19.25;65.79;98437.03;4108239;28;20717;-81
2022/07/15 01:57:29;;;;;;;3.60;2.73;;;;;;;19.21;64.53;98431.19;4107407;28;20663;-82
2022/07/15 01:59:33;;;;;;;7.50;3.47;;;;;;;19.19;65.24;98432.34;4111924;28;20648;-81
2022/07/15 02:01:36;;;;;;;7.97;3.33;;;;;;;19.19;65.38;98435.81;4113093;28;20640;-82
2022/07/15 02:03:44;;;;;;;3.60;2.77;;;;;;;19.14;65.76;98431.94;4124780;28;21088;-81
2022/07/15 02:05:47;;;;;;;6.23;2.77;;;;;;;19.08;65.59;98435.22;4125648;28;20688;-81
2022/07/15 02:07:52;;;;;;;4.93;2.90;;;;;;;19.01;66.18;98437.59;4126556;28;20644;-81
2022/07/15 02:09:58;;;;;;;3.43;2.70;;;;;;;18.94;66.65;98433.00;4126829;28;20633;-81
2022/07/15 02:12:01;;;;;;;4.20;2.83;;;;;;;18.87;67.54;98437.25;4111229;28;20732;-82
2022/07/15 02:14:11;;;;;;;5.73;3.33;;;;;;;18.74;68.10;98436.72;4127818;28;20670;-81
2022/07/15 02:16:15;;;;;;;3.47;2.67;;;;;;;18.72;67.77;98430.78;4108036;28;20644;-81
2022/07/15 02:18:19;;;;;;;4.40;2.83;;;;;;;18.67;67.30;98430.38;4126351;28;20677;-81
2022/07/15 02:20:22;;;;;;;3.37;2.70;;;;;;;18.67;66.56;98434.81;4112287;28;20730;-81
2022/07/15 02:22:25;;;;;;;4.60;3.13;;;;;;;18.63;67.70;98431.66;4125156;28;21049;-81
2022/07/15 02:24:28;;;;;;;5.10;2.70;;;;;;;18.60;67.73;98429.28;4126759;28;20642;-81
2022/07/15 02:26:32;;;;;;;3.60;2.70;;;;;;;18.56;65.95;98437.66;4125713;28;20687;-81
2022/07/15 02:28:36;;;;;;;6.27;2.90;;;;;;;18.51;67.26;98442.56;4108944;28;20638;-81
2022/07/15 02:30:40;;;;;;;11.80;3.10;;;;;;;18.44;67.25;98434.34;4107960;28;20641;-81
2022/07/15 02:32:44;;;;;;;4.67;2.67;;;;;;;18.34;68.97;98440.63;4126204;28;20681;-81
2022/07/15 02:34:48;;;;;;;3.30;2.80;;;;;;;18.26;68.50;98437.06;4110631;28;20643;-81
2022/07/15 02:36:52;;;;;;;3.90;3.07;;;;;;;18.20;69.14;98435.00;4124973;28;20730;-81
2022/07/15 02:38:56;;;;;;;5.83;3.93;;;;;;;18.14;69.03;98438.22;4112242;28;20674;-81
2022/07/15 02:41:00;;;;;;;5.63;3.50;;;;;;;18.12;69.43;98434.84;4114054;28;20746;-81
2022/07/15 02:43:05;;;;;;;5.10;3.40;;;;;;;18.13;68.44;98431.25;4090771;28;20667;-81
2022/07/15 02:45:11;;;;;;;14.10;4.13;;;;;;;18.11;69.93;98434.00;4110496;28;20654;-81
2022/07/15 02:47:14;;;;;;;4.47;3.73;;;;;;;18.08;70.64;98442.22;4127820;28;20645;-81
2022/07/15 02:49:18;;;;;;;5.87;4.10;;;;;;;18.04;70.16;98445.28;4127600;28;24400;-82
2022/07/15 02:51:21;;;;;;;4.23;3.83;;;;;;;18.00;71.28;98450.00;4111594;28;20655;-82
2022/07/15 02:53:28;;;;;;;5.67;4.20;;;;;;;17.97;70.62;98449.47;4120784;28;20646;-81
2022/07/15 02:55:36;;;;;;;5.20;4.17;;;;;;;17.94;71.00;98444.47;4127133;28;21438;-81
2022/07/15 02:57:39;;;;;;;5.50;4.20;;;;;;;17.93;71.26;98448.06;4127885;28;20629;-81
2022/07/15 02:59:48;;;;;;;9.00;4.63;;;;;;;17.91;71.04;98450.03;4109814;28;20640;-81
2022/07/15 03:01:51;;;;;;;5.77;4.30;;;;;;;17.88;72.80;98454.78;4108280;28;20668;-81
2022/07/15 03:03:55;;;;;;;5.67;4.83;;;;;;;17.84;71.13;98453.38;4112263;28;20628;-82
2022/07/15 03:06:00;;;;;;;5.90;5.00;;;;;;;17.81;70.58;98445.75;4126772;28;21253;-81
2022/07/15 03:08:03;;;;;;;5.30;4.57;;;;;;;17.75;71.10;98454.22;4110384;28;20643;-81
2022/07/15 03:10:08;;;;;;;7.27;4.70;;;;;;;17.75;72.61;98459.50;4109824;28;20646;-81
2022/07/15 03:12:12;;;;;;;5.60;4.77;;;;;;;17.73;72.74;98461.44;4109144;28;21189;-82
2022/07/15 03:14:15;;;;;;;5.93;4.87;;;;;;;17.67;73.21;98459.38;4127674;28;20640;-81
2022/07/15 03:16:24;;;;;;;7.03;4.97;;;;;;;17.63;72.41;98457.97;4124664;28;21096;-82
2022/07/15 03:18:28;;;;;;;6.97;4.80;;;;;;;17.60;72.66;98466.16;4126209;28;21308;-81
2022/07/15 03:20:31;;;;;;;5.27;4.63;;;;;;;17.56;72.43;98462.97;4124370;28;20660;-81
2022/07/15 03:22:34;;;;;;;5.67;4.60;;;;;;;17.56;72.66;98460.34;4108420;28;20648;-81
2022/07/15 03:24:38;;;;;;;6.70;4.60;;;;;;;17.52;73.85;98464.22;4097066;28;20705;-81
2022/07/15 03:26:41;;;;;;;6.37;4.70;;;;;;;17.49;73.35;98467.13;4127087;28;20655;-81
2022/07/15 03:28:44;;;;;;;6.53;5.00;;;;;;;17.46;74.36;98470.03;4124016;28;20668;-81
2022/07/15 03:30:48;;;;;;;6.47;5.10;;;;;;;17.41;74.39;98460.88;4111214;28;21279;-81
2022/07/15 03:32:54;;;;;;;5.70;4.67;;;;;;;17.39;74.17;98470.72;4121225;28;20668;-81
2022/07/15 03:34:57;;;;;;;7.17;5.07;;;;;;;17.32;74.30;98466.97;4108039;28;20629;-81
2022/07/15 03:37:06;;;;;;;8.87;5.57;;;;;;;17.24;74.36;98465.97;4096037;28;20654;-81
2022/07/15 03:39:10;;;;;;;6.60;5.17;;;;;;;17.17;73.12;98467.47;4112054;28;20643;-82
2022/07/15 03:41:13;;;;;;;5.83;5.20;;;;;;;17.13;75.19;98463.44;4107645;28;20668;-81
2022/07/15 03:43:16;;;;;;;7.10;5.27;;;;;;;17.12;75.33;98470.53;4131478;28;20639;-81
2022/07/15 03:45:23;;;;;;;6.63;5.40;;;;;;;17.06;73.10;98476.34;4126737;28;20637;-81
2022/07/15 03:47:29;;;;;;;6.40;5.07;;;;;;;17.03;75.11;98481.03;4110482;28;20637;-81
2022/07/15 03:49:33;;;;;;;7.63;5.37;;;;;;;17.01;74.90;98477.69;4127140;28;21267;-81
2022/07/15 03:51:37;;;;;;;9.43;5.50;;;;;;;17.01;74.86;98481.16;4108333;28;21270;-81
2022/07/15 03:53:40;;;;;;;5.70;4.67;;;;;;;17.01;75.00;98485.59;4108269;28;20710;-81
2022/07/15 03:55:45;;;;;;;8.07;4.90;;;;;;;17.00;74.71;98486.56;4106906;28;21050;-81
2022/07/15 03:57:48;;;;;;;6.57;4.90;;;;;;;17.00;76.53;98483.94;4109188;28;20628;-81
2022/07/15 03:59:51;;;;;;;7.33;4.80;;;;;;;17.02;75.23;98496.00;4109375;28;20729;-81
2022/07/15 04:01:54;;;;;;;7.30;5.20;;;;;;;17.07;76.53;98496.44;4122320;28;20691;-81
2022/07/15 04:03:58;;;;;;;6.07;5.10;;;;;;;17.08;74.33;98495.47;4125454;28;20690;-82
2022/07/15 04:06:02;;;;;;;7.73;4.70;;;;;;;17.14;74.18;98499.41;4105695;28;21525;-81
2022/07/15 04:08:05;;;;;;;5.63;4.90;;;;;;;17.18;75.85;98493.69;4108208;28;21033;-81
2022/07/15 04:10:09;;;;;;;5.13;4.47;;;;;;;17.24;74.38;98500.25;4110810;28;21197;-82
2022/07/15 04:12:12;;;;;;;6.57;4.60;;;;;;;17.27;75.22;98495.53;4131052;28;20646;-81
2022/07/15 04:14:22;;;;;;;8.70;4.97;;;;;;;17.31;74.34;98498.75;4124481;28;21335;-81
2022/07/15 04:16:25;;;;;;;6.50;4.80;;;;;;;17.36;75.11;98493.91;4128267;28;20635;-82
2022/07/15 04:18:31;;;;;;;7.23;4.90;;;;;;;17.40;73.67;98495.31;4110397;28;20670;-81
2022/07/15 04:20:37;;;;;;;6.73;5.43;;;;;;;17.41;75.17;98499.59;4110547;28;20812;-81
2022/07/15 04:22:42;;;;;;;5.47;4.90;;;;;;;17.43;75.09;98502.94;4108126;28;20695;-80
2022/07/15 04:24:45;;;;;;;8.47;5.07;;;;;;;17.45;75.01;98503.63;4121901;28;20629;-81
2022/07/15 04:26:50;;;;;;;6.87;5.03;;;;;;;17.46;73.65;98501.69;4112573;28;20661;-81
2022/07/15 04:28:54;;;;;;;5.70;4.80;;;;;;;17.42;71.99;98502.09;4113900;28;20739;-81
2022/07/15 04:30:58;;;;;;;5.23;4.73;;;;;;;17.40;73.47;98501.41;4105671;28;20670;-81
2022/07/15 04:33:09;;;;;;;8.70;5.23;;;;;;;17.43;73.41;98500.31;4108236;28;20636;-81
2022/07/15 04:35:15;;;;;;;7.80;4.93;;;;;;;17.46;75.33;98500.03;4125280;28;20631;-81
2022/07/15 04:37:22;;;;;;;6.03;5.40;;;;;;;17.48;73.57;98505.03;4106922;28;20683;-81
2022/07/15 04:39:30;;;;;;;9.53;5.00;;;;;;;17.46;73.49;98498.22;4122461;28;20640;-81
2022/07/15 04:41:34;;;;;;;6.70;4.90;;;;;;;17.49;75.14;98503.22;4123638;28;20640;-81
2022/07/15 04:43:39;;;;;;;6.60;5.40;;;;;;;17.53;74.36;98509.91;4109430;28;21035;-81
2022/07/15 04:45:46;;;;;;;7.57;5.60;;;;;;;17.56;72.96;98502.53;4122979;28;21250;-81
2022/07/15 04:47:54;;;;;;;9.83;6.07;;;;;;;17.62;73.12;98506.41;4104175;28;20657;-82
2022/07/15 04:52:26;;;;;;;8.73;5.90;;;;;;;17.66;74.17;98511.28;4123056;28;20645;-81
2022/07/15 04:54:32;;;;;;;7.83;5.13;;;;;;;17.69;73.34;98507.53;4107309;28;20637;-83
2022/07/15 04:56:35;;;;;;;6.60;5.30;;;;;;;17.73;72.68;98507.13;4127118;28;20649;-81
2022/07/15 04:58:41;;;;;;;11.30;6.17;;;;;;;17.78;73.54;98512.81;4126428;28;21297;-81
2022/07/15 05:00:46;;;;;;;7.73;5.83;;;;;;;17.83;73.81;98507.97;4109037;28;20997;-82
2022/07/15 05:02:51;;;;;;;7.20;4.90;;;;;;;17.88;72.52;98508.38;4126766;28;20638;-82
2022/07/15 05:04:54;;;;;;;6.80;5.43;;;;;;;17.91;72.89;98512.56;4110665;28;20676;-82
2022/07/15 05:06:58;;;;;;;9.33;5.60;;;;;;;17.99;73.77;98511.69;4124709;28;20752;-82
2022/07/15 05:09:02;;;;;;;9.43;5.83;;;;;;;18.08;72.92;98515.31;4109259;28;20736;-81
2022/07/15 05:11:10;;;;;;;7.03;5.20;;;;;;;18.11;73.58;98515.03;4110989;28;20744;-82
2022/07/15 05:13:14;;;;;;;9.03;6.00;;;;;;;18.16;73.68;98518.97;4112322;28;20649;-81
2022/07/15 05:15:17;;;;;;;9.20;5.20;;;;;;;18.22;73.89;98523.69;4094005;28;20637;-82
2022/07/15 05:17:21;;;;;;;7.40;5.63;;;;;;;18.27;72.47;98528.53;4109488;28;20724;-82
2022/07/15 05:19:24;;;;;;;7.07;5.00;;;;;;;18.31;72.28;98521.97;4127540;28;20640;-82
2022/07/15 05:21:28;;;;;;;8.23;5.33;;;;;;;18.33;71.97;98526.16;4110215;28;20646;-82
2022/07/15 05:23:31;;;;;;;8.40;4.80;;;;;;;18.37;71.80;98521.41;4126093;28;20629;-82
2022/07/15 05:25:38;;;;;;;5.03;4.27;;;;;;;18.40;71.26;98515.84;4112544;28;20645;-82
2022/07/15 05:27:42;;;;;;;8.40;4.23;;;;;;;18.46;72.03;98527.53;4110449;28;20713;-82
2022/07/15 05:29:45;;;;;;;9.00;4.57;;;;;;;18.53;71.96;98528.59;4108713;28;20708;-82
2022/07/15 05:31:48;;;;;;;6.27;4.73;;;;;;;18.60;71.43;98532.34;4126841;28;20644;-82
2022/07/15 05:33:53;;;;;;;7.47;5.17;;;;;;;18.64;72.28;98525.81;4126849;28;21018;-82
2022/07/15 05:35:56;;;;;;;4.90;4.17;;;;;;;18.73;71.48;98530.22;4108090;28;20656;-82
2022/07/15 05:38:04;;;;;;;6.67;4.60;;;;;;;18.84;71.30;98531.84;4128251;28;21087;-82
2022/07/15 05:40:11;;;;;;;8.00;4.37;;;;;;;18.94;71.28;98533.47;4113312;28;20636;-82
2022/07/15 05:42:19;;;;;;;6.17;4.87;;;;;;;19.05;70.49;98536.00;4108037;28;21246;-82
2022/07/15 05:44:24;;;;;;;5.47;4.17;;;;;;;19.21;71.66;98536.19;4108257;28;20651;-82
2022/07/15 05:46:27;;;;;;;6.97;4.93;;;;;;;19.35;71.29;98539.19;4128189;28;20686;-82
2022/07/15 05:48:37;;;;;;;7.43;4.60;;;;;;;19.55;70.12;98540.72;4128050;28;20672;-82
2022/07/15 05:50:40;;;;;;;8.33;4.60;;;;;;;19.78;69.76;98542.78;4108658;28;20712;-82
2022/07/15 05:52:46;;;;;;;5.53;4.10;;;;;;;20.13;70.05;98546.31;4106302;28;21403;-82
2022/07/15 05:54:49;;;;;;;4.50;3.70;;;;;;;20.45;68.78;98551.88;4126908;28;20648;-82
2022/07/15 05:56:53;;;;;;;5.43;4.00;;;;;;;20.80;66.83;98549.97;4124787;28;20643;-82
2022/07/15 05:58:58;;;;;;;5.80;4.23;;;;;;;21.10;66.78;98552.16;4124224;28;20662;-82
2022/07/15 06:01:09;;;;;;;5.33;4.00;;;;;;;21.41;65.80;98564.75;4114992;28;20640;-82
2022/07/15 06:03:14;;;;;;;5.33;3.43;;;;;;;21.74;64.80;98562.06;4127229;28;20657;-82
2022/07/15 06:05:20;;;;;;;5.20;3.90;;;;;;;21.98;62.71;98559.44;4110654;28;20621;-82
2022/07/15 06:07:27;;;;;;;5.53;3.67;;;;;;;22.10;62.27;98561.63;4127254;28;22833;-82
2022/07/15 06:09:30;;;;;;;5.00;3.63;;;;;;;22.41;62.78;98565.31;4111800;28;20686;-82
2022/07/15 06:11:34;;;;;;;6.53;3.80;;;;;;;22.64;61.15;98555.66;4111725;28;21084;-82
2022/07/15 06:13:38;;;;;;;3.73;3.37;;;;;;;22.85;60.28;98564.78;4109800;28;21820;-84
2022/07/15 06:15:41;;;;;;;6.03;3.70;;;;;;;23.03;60.05;98558.28;4109208;28;20677;-83
2022/07/15 06:17:51;;;;;;;6.73;4.63;;;;;;;23.30;61.14;98568.50;4107158;28;20660;-83
2022/07/15 06:19:56;;;;;;;5.00;3.87;;;;;;;23.63;61.22;98578.03;4113965;28;20657;-82
2022/07/15 06:22:00;;;;;;;5.07;3.73;;;;;;;23.84;60.38;98569.28;4127241;28;20661;-82
2022/07/15 06:24:05;;;;;;;6.60;4.03;;;;;;;24.06;59.84;98565.81;4121750;28;20753;-82
2022/07/15 06:26:09;;;;;;;5.40;3.70;;;;;;;24.29;61.41;98567.47;4124325;28;20634;-83
2022/07/15 06:28:13;;;;;;;6.13;3.77;;;;;;;24.59;59.49;98574.59;4126057;28;20667;-82
2022/07/15 06:30:17;;;;;;;5.20;4.20;;;;;;;24.89;57.41;98579.81;4110494;28;21007;-83
2022/07/15 06:32:20;;;;;;;4.87;3.47;;;;;;;25.06;58.25;98572.53;4108991;28;20684;-83
2022/07/15 06:34:24;;;;;;;11.23;4.27;;;;;;;25.22;57.36;98573.19;4130389;28;20696;-83
2022/07/15 06:36:27;;;;;;;6.33;3.60;;;;;;;25.38;56.96;98573.81;4113360;28;20642;-82
2022/07/15 06:38:31;;;;;;;5.03;3.80;;;;;;;25.60;56.25;98565.72;4093863;28;20796;-82
2022/07/15 06:40:35;;;;;;;5.90;3.50;;;;;;;25.71;55.22;98565.25;4113453;28;20685;-82
2022/07/15 06:42:38;;;;;;;5.17;3.37;;;;;;;25.95;56.09;98572.09;4113648;28;20646;-82
2022/07/15 06:44:44;;;;;;;5.00;3.87;;;;;;;26.03;54.76;98559.44;4114577;28;20664;-82
2022/07/15 06:46:48;;;;;;;6.33;3.70;;;;;;;26.19;56.75;98570.75;4109672;28;20646;-82
2022/07/15 06:48:51;;;;;;;5.73;3.10;;;;;;;26.33;56.31;98561.84;4126220;28;20697;-82
2022/07/15 06:50:56;;;;;;;5.00;3.07;;;;;;;26.50;54.61;98571.28;4109780;28;20624;-82
2022/07/15 06:52:59;;;;;;;4.40;3.30;;;;;;;26.78;54.50;98567.63;4113308;28;21433;-82
2022/07/15 06:55:03;;;;;;;4.87;3.00;;;;;;;26.99;54.27;98567.59;4109259;28;20637;-82
2022/07/15 06:57:07;;;;;;;5.53;2.93;;;;;;;27.12;51.92;98565.84;4124244;28;20650;-82
2022/07/15 06:59:11;;;;;;;3.60;2.47;;;;;;;27.21;53.85;98570.03;4127905;28;20630;-82
2022/07/15 07:01:14;;;;;;;4.60;2.70;;;;;;;27.27;50.71;98569.25;4102842;28;20663;-82
2022/07/15 07:03:17;;;;;;;3.90;2.23;;;;;;;27.39;51.53;98567.63;4106605;28;20740;-82
2022/07/15 07:05:40;;;;;;;4.40;2.33;;;;;;;27.62;50.97;98573.59;4105989;28;20650;-82
2022/07/15 07:07:45;;;;;;;5.67;3.20;;;;;;;27.69;50.11;98561.84;4113816;28;21212;-82
2022/07/15 07:09:49;;;;;;;5.47;2.70;;;;;;;27.92;50.10;98565.06;4104619;28;21527;-82
2022/07/15 07:11:52;;;;;;;5.10;2.50;;;;;;;27.90;49.39;98563.59;4124466;28;20656;-82
2022/07/15 07:13:56;;;;;;;4.87;2.70;;;;;;;27.96;48.30;98563.59;4108358;28;20750;-82
2022/07/15 07:15:59;;;;;;;2.90;2.13;;;;;;;28.07;48.82;98563.00;4108010;28;20648;-81
2022/07/15 07:18:03;;;;;;;4.20;2.30;;;;;;;28.16;50.92;98561.81;4123809;28;20638;-82
2022/07/15 07:20:07;;;;;;;7.03;2.97;;;;;;;28.27;49.49;98553.19;4093007;28;20644;-82
2022/07/15 07:22:10;;;;;;;5.70;2.63;;;;;;;28.42;48.88;98559.22;4092676;28;20652;-82
2022/07/15 07:24:15;;;;;;;4.50;2.43;;;;;;;28.61;48.61;98553.84;4110156;28;20683;-83
2022/07/15 07:26:19;;;;;;;6.70;2.73;;;;;;;28.73;48.26;98546.84;4112777;28;20655;-82
2022/07/15 07:28:22;;;;;;;5.87;2.40;;;;;;;28.89;48.52;98559.88;4123518;28;20652;-82
2022/07/15 07:30:25;;;;;;;3.83;2.80;;;;;;;28.87;48.29;98549.34;4125324;28;21021;-82
2022/07/15 07:32:28;;;;;;;3.83;2.33;;;;;;;28.94;47.05;98552.81;4111694;28;20640;-82
2022/07/15 07:34:32;;;;;;;3.73;2.53;;;;;;;28.75;46.21;98552.88;4109528;28;21182;-82
2022/07/15 07:36:35;;;;;;;8.70;2.93;;;;;;;28.78;48.90;98547.91;4121283;28;20643;-82
2022/07/15 07:38:38;;;;;;;4.73;2.43;;;;;;;28.88;49.01;98542.91;4109270;28;20636;-82
2022/07/15 07:40:47;;;;;;;7.37;2.80;;;;;;;28.99;48.87;98545.81;4106974;28;20680;-82
2022/07/15 07:42:51;;;;;;;4.30;2.50;;;;;;;29.22;49.75;98545.34;4124336;28;20645;-82
2022/07/15 07:44:55;;;;;;;3.63;2.40;;;;;;;29.35;47.92;98548.88;4107120;28;20740;-82
2022/07/15 07:46:58;;;;;;;4.63;2.40;;;;;;;29.42;47.25;98546.16;4107244;28;20685;-82
2022/07/15 07:49:01;;;;;;;4.07;2.77;;;;;;;29.48;46.77;98546.13;4108621;28;20657;-82
2022/07/15 07:51:25;;;;;;;4.40;2.63;;;;;;;29.59;49.24;98543.63;4109633;28;20641;-82
2022/07/15 07:53:28;;;;;;;3.33;2.80;;;;;;;29.72;46.31;98540.03;4100686;28;20671;-81
2022/07/15 07:55:31;;;;;;;3.90;2.73;;;;;;;29.76;45.62;98542.09;4109645;28;20672;-82
2022/07/15 07:57:36;;;;;;;4.60;2.30;;;;;;;29.83;47.96;98540.25;4122301;28;21013;-82
2022/07/15 07:59:39;;;;;;;3.77;2.47;;;;;;;29.96;46.24;98538.31;4120614;28;20639;-82
2022/07/15 08:01:42;;;;;;;4.43;2.70;;;;;;;30.00;44.89;98536.84;4122809;28;20644;-82
2022/07/15 08:03:46;;;;;;;3.33;2.77;;;;;;;30.06;43.92;98543.22;4110276;28;20639;-82
2022/07/15 08:05:49;;;;;;;3.40;2.70;;;;;;;30.17;45.39;98529.88;4108308;28;20754;-82
2022/07/15 08:07:57;;;;;;;3.90;2.73;;;;;;;30.14;44.31;98524.94;4109114;28;20636;-82
2022/07/15 08:10:00;;;;;;;6.47;2.30;;;;;;;30.15;45.71;98528.47;4128117;28;20651;-82
2022/07/15 08:12:04;;;;;;;4.37;2.40;;;;;;;30.15;43.82;98540.06;4107549;28;20652;-83
2022/07/15 08:14:08;;;;;;;3.30;2.60;;;;;;;30.22;44.08;98524.69;4128466;28;20646;-82
2022/07/15 08:16:11;;;;;;;3.57;2.80;;;;;;;30.34;44.30;98538.31;4126498;28;20624;-82
2022/07/15 08:18:15;;;;;;;4.30;2.80;;;;;;;30.42;45.13;98531.63;4122603;28;20618;-82
2022/07/15 08:20:18;;;;;;;5.27;2.90;;;;;;;30.50;44.11;98533.22;4127218;28;20660;-82
2022/07/15 08:22:21;;;;;;;3.30;2.33;;;;;;;30.50;43.82;98534.03;4106477;28;20684;-82
2022/07/15 08:24:24;;;;;;;6.30;2.70;;;;;;;30.51;43.09;98526.81;4109717;28;20637;-82
2022/07/15 08:26:27;;;;;;;3.93;2.73;;;;;;;30.19;42.39;98522.44;4124001;28;20717;-82
2022/07/15 08:28:31;;;;;;;3.97;2.43;;;;;;;30.22;44.79;98523.84;4127419;28;20633;-81
2022/07/15 08:30:55;;;;;;;3.47;2.90;;;;;;;30.39;45.41;98530.44;4109509;28;20644;-82
2022/07/15 08:32:58;;;;;;;3.97;2.77;;;;;;;30.44;43.82;98534.91;4089683;29;20644;-82
2022/07/15 08:35:01;;;;;;;5.67;2.90;;;;;;;30.39;42.91;98530.44;4122728;28;20679;-82
2022/07/15 08:37:11;;;;;;;4.20;2.80;;;;;;;30.33;43.60;98526.69;4126228;28;20645;-82
2022/07/15 08:39:15;;;;;;;4.40;2.60;;;;;;;30.41;44.37;98528.31;4123352;28;20637;-82
2022/07/15 08:41:18;;;;;;;3.40;2.50;;;;;;;30.40;44.47;98515.88;4109183;28;21253;-82
2022/07/15 08:43:22;;;;;;;3.53;2.60;;;;;;;30.41;45.22;98521.06;4107460;28;21085;-82
2022/07/15 08:45:26;;;;;;;5.40;2.50;;;;;;;30.57;46.28;98521.34;4108401;28;20651;-82
2022/07/15 08:47:32;;;;;;;3.37;2.43;;;;;;;30.68;44.58;98523.31;4111057;28;20625;-82
2022/07/15 08:49:57;;;;;;;4.30;2.90;;;;;;;30.69;44.84;98521.47;4117530;28;20655;-80
2022/07/15 08:52:01;;;;;;;6.20;2.57;;;;;;;30.78;44.64;98522.84;4120734;28;20643;-81
2022/07/15 08:54:05;;;;;;;5.67;2.70;;;;;;;30.77;44.95;98524.69;4107563;28;20643;-80
2022/07/15 08:56:08;;;;;;;5.50;3.27;;;;;;;30.79;44.02;98525.28;4107777;28;20651;-80
2022/07/15 08:58:11;;;;;;;6.87;2.70;;;;;;;30.81;43.59;98528.63;4122021;28;21012;-80
2022/07/15 09:00:16;;;;;;;4.00;2.53;;;;;;;30.86;45.21;98533.34;4123750;28;20634;-80
2022/07/15 09:02:20;;;;;;;3.70;2.50;;;;;;;30.91;44.27;98531.66;4109359;28;20650;-80
2022/07/15 09:04:24;;;;;;;3.90;2.60;;;;;;;30.95;44.27;98536.38;4125001;28;20638;-81
2022/07/15 09:06:35;;;;;;;4.43;2.90;;;;;;;30.88;44.00;98532.09;4105049;28;21102;-80
2022/07/15 09:08:38;;;;;;;5.10;2.60;;;;;;;30.90;44.47;98535.41;4123815;28;20991;-80
2022/07/15 09:10:52;;;;;;;4.40;2.80;;;;;;;30.89;43.41;98532.94;4106899;28;20649;-81
2022/07/15 09:12:55;;;;;;;4.03;3.13;;;;;;;30.90;44.80;98529.19;4103777;28;20667;-80
2022/07/15 09:14:58;;;;;;;3.90;2.30;;;;;;;30.90;43.60;98535.41;4123713;28;20630;-80
2022/07/15 09:17:23;;;;;;;5.60;2.77;;;;;;;30.90;42.65;98535.41;4125303;28;20644;-80
2022/07/15 09:19:28;;;;;;;2.50;2.20;;;;;;;30.88;45.12;98528.59;4106143;28;20675;-80
2022/07/15 09:21:31;;;;;;;3.63;2.70;;;;;;;30.93;44.70;98538.47;4105034;28;20687;-81
2022/07/15 09:23:35;;;;;;;4.07;2.60;;;;;;;30.94;42.51;98533.91;4119587;28;20658;-81
2022/07/15 09:25:39;;;;;;;4.03;2.57;;;;;;;30.78;42.73;98530.94;4121075;28;20649;-81
2022/07/15 09:27:44;;;;;;;6.97;2.70;;;;;;;30.81;42.51;98530.47;4124454;28;20638;-80
2022/07/15 09:34:30;;;;;;;3.37;2.40;;;;;;;30.80;43.30;98531.53;4125221;28;21088;-80
2022/07/15 09:36:33;;;;;;;5.40;2.50;;;;;;;30.76;45.11;98522.22;4123473;28;20693;-81
2022/07/15 09:38:41;;;;;;;4.87;2.53;;;;;;;30.85;43.10;98518.22;4100139;28;20629;-81
2022/07/15 09:40:48;;;;;;;3.80;2.93;;;;;;;30.81;44.13;98517.84;4123568;28;20634;-81
2022/07/15 09:43:04;;;;;;;2.97;2.40;;;;;;;30.87;43.63;98524.19;4106742;28;20682;-80
2022/07/15 09:45:20;;;;;;;4.90;2.70;;;;;;;30.83;43.98;98515.72;4110066;28;20655;-81
2022/07/15 09:47:24;;;;;;;3.60;3.20;;;;;;;30.78;43.96;98525.56;4105273;28;20639;-80
2022/07/15 09:49:38;;;;;;;4.80;3.30;;;;;;;30.89;44.02;98524.84;4122386;28;20642;-80
2022/07/15 09:51:49;;;;;;;4.53;2.73;;;;;;;30.80;45.66;98520.75;4110635;28;21321;-80
2022/07/15 09:53:52;;;;;;;4.20;2.67;;;;;;;30.81;44.00;98520.53;4123059;28;20677;-80
2022/07/15 09:56:03;;;;;;;3.63;2.70;;;;;;;30.97;44.91;98525.38;4107355;28;20652;-80
2022/07/15 09:58:08;;;;;;;3.23;2.80;;;;;;;31.00;44.85;98525.78;4125825;28;20747;-80